Beauport, Canada
Current Conditions -  °F | °C
As of 12:00 PM on Wednesday 26 Nov 2014 (Local Time) from CYQB Reporting Station
Overcast Overcast  
Wind Chill: 26°   Ceiling: 17000
Heat Index: 32°   Visibility: 25mi
Dew Point: 21°   Wind: 7mph
Humidity: 64%   Direction: 40°NE
Pressure: 30.2"   Gusts: NA
Location:  46.86°N, 71.19°W
Report Text: CYQB 261700Z 04006KT 25SM FEW040 OVC170 00/M06 A3020 RMK SC2AC6 PRESFR SLP229
Loading
Personal Weather Stations






























Interactive Weather Map New forecast layout! Learn more

10-Day Weather Forecast

Advertisements
Track Severe Weather on mobile